createdAt,value
2022-10-05T00:00:55.339Z,69.20
2022-10-05T00:03:24.878Z,72.55
2022-10-05T00:05:52.051Z,72.30
2022-10-05T00:08:23.845Z,72.07
2022-10-05T00:10:52.542Z,71.22
2022-10-05T00:13:30.669Z,68.97
2022-10-05T00:16:20.159Z,66.70
2022-10-05T00:18:52.598Z,71.63
2022-10-05T00:21:29.693Z,70.97
2022-10-05T00:23:58.546Z,71.90
2022-10-05T00:26:32.962Z,70.22
2022-10-05T00:29:08.968Z,68.82
2022-10-05T00:31:36.451Z,73.45
2022-10-05T00:34:03.645Z,70.90
2022-10-05T00:36:31.947Z,71.38
2022-10-05T00:39:01.998Z,72.63
2022-10-05T00:41:52.033Z,71.63
2022-10-05T00:44:54.710Z,70.28
2022-10-05T00:47:49.704Z,72.28
2022-10-05T00:50:54.193Z,70.55
2022-10-05T00:53:48.573Z,70.10
2022-10-05T00:56:30.469Z,73.38
2022-10-05T00:59:24.545Z,68.60
2022-10-05T01:03:00.686Z,69.78
2022-10-05T01:06:43.449Z,69.68
2022-10-05T01:10:15.967Z,71.47
2022-10-05T01:13:38.723Z,69.40
2022-10-05T01:16:49.303Z,69.55
2022-10-05T01:20:14.001Z,67.22
2022-10-05T01:23:33.828Z,68.03
2022-10-05T01:27:09.825Z,68.07
2022-10-05T01:30:11.045Z,69.40
2022-10-05T01:33:02.904Z,67.45
2022-10-05T01:35:53.964Z,65.10
2022-10-05T01:38:42.914Z,65.60
2022-10-05T01:41:48.044Z,65.53
2022-10-05T01:44:29.106Z,64.90
2022-10-05T01:47:09.968Z,63.08
2022-10-05T01:50:04.494Z,63.25
2022-10-05T01:53:47.262Z,64.90
2022-10-05T01:56:59.334Z,59.47
2022-10-05T02:00:05.537Z,62.25
2022-10-05T02:03:06.281Z,60.50
2022-10-05T02:06:01.411Z,61.42
2022-10-05T02:09:07.397Z,60.88
2022-10-05T02:11:37.121Z,60.63
2022-10-05T02:14:13.189Z,61.30
2022-10-05T02:16:46.062Z,60.33
2022-10-05T02:19:47.111Z,59.90
2022-10-05T02:22:45.142Z,57.58
2022-10-05T02:25:24.280Z,57.63
2022-10-05T02:28:05.278Z,58.72
2022-10-05T02:30:41.573Z,57.28
2022-10-05T02:33:32.509Z,58.83
2022-10-05T02:36:20.369Z,59.00
2022-10-05T02:39:47.718Z,57.63
2022-10-05T02:43:19.214Z,57.08
2022-10-05T02:47:05.624Z,56.08
2022-10-05T02:49:49.260Z,56.25
2022-10-05T02:52:53.621Z,58.60
2022-10-05T02:56:03.038Z,55.85
2022-10-05T02:59:15.156Z,56.72
2022-10-05T03:02:02.217Z,58.22
2022-10-05T03:05:04.553Z,55.67
2022-10-05T03:07:50.925Z,56.60
2022-10-05T03:10:47.869Z,57.30
2022-10-05T03:13:48.389Z,56.10
2022-10-05T03:17:04.049Z,55.58
2022-10-05T03:20:22.717Z,54.78
2022-10-05T03:22:54.594Z,52.75
2022-10-05T03:26:02.914Z,54.17
2022-10-05T03:29:03.936Z,54.45
2022-10-05T03:31:50.369Z,51.65
2022-10-05T03:34:32.909Z,52.30
2022-10-05T03:37:14.993Z,51.03
2022-10-05T03:39:56.218Z,53.42
2022-10-05T03:43:06.670Z,51.53
2022-10-05T03:45:48.955Z,51.20
2022-10-05T03:48:33.655Z,50.17
2022-10-05T03:51:15.613Z,49.53
2022-10-05T03:53:58.331Z,50.05
2022-10-05T03:56:55.245Z,50.53
2022-10-05T03:59:34.791Z,49.08
2022-10-05T04:02:37.266Z,51.72
2022-10-05T04:05:11.048Z,50.33
2022-10-05T04:08:04.469Z,48.50
2022-10-05T04:10:44.534Z,49.72
2022-10-05T04:13:47.776Z,50.70
2022-10-05T04:16:28.176Z,49.40
2022-10-05T04:19:21.569Z,49.58
2022-10-05T04:22:03.393Z,49.08
2022-10-05T04:24:56.691Z,48.72
2022-10-05T04:27:59.489Z,50.17
2022-10-05T04:30:27.325Z,47.92
2022-10-05T04:32:59.360Z,49.72
2022-10-05T04:36:22.447Z,48.95
2022-10-05T04:39:03.632Z,47.17
2022-10-05T04:42:09.051Z,47.30
2022-10-05T04:45:02.441Z,47.20
2022-10-05T04:47:58.173Z,44.70
2022-10-05T04:50:59.841Z,47.65
2022-10-05T04:53:57.305Z,47.28
2022-10-05T04:56:36.806Z,44.22
2022-10-05T04:59:41.105Z,47.55
2022-10-05T05:03:10.070Z,46.30
2022-10-05T05:06:24.959Z,44.35
2022-10-05T05:09:37.001Z,46.35
2022-10-05T05:12:50.921Z,45.17
2022-10-05T05:16:02.095Z,44.63
2022-10-05T05:19:17.345Z,44.10
2022-10-05T05:21:59.691Z,43.60
2022-10-05T05:24:49.220Z,41.83
2022-10-05T05:27:43.589Z,41.97
2022-10-05T05:30:25.019Z,42.72
2022-10-05T05:33:15.739Z,41.22
2022-10-05T05:36:11.413Z,43.97
2022-10-05T05:39:27.824Z,43.47
2022-10-05T05:42:49.621Z,40.78
2022-10-05T05:45:44.102Z,43.05
2022-10-05T05:51:32.705Z,40.58
2022-10-05T05:54:39.410Z,42.22
2022-10-05T05:57:28.917Z,42.00
2022-10-05T06:00:08.393Z,42.25
2022-10-05T06:03:09.641Z,39.00
2022-10-05T06:06:16.808Z,40.15
2022-10-05T06:08:53.977Z,43.00
2022-10-05T06:11:58.273Z,42.58
2022-10-05T06:14:55.253Z,42.47
2022-10-05T06:17:45.316Z,42.88
2022-10-05T06:20:40.746Z,41.50
2022-10-05T06:23:28.333Z,41.70
2022-10-05T06:26:39.756Z,41.13
2022-10-05T06:29:22.868Z,42.33
2022-10-05T06:32:21.359Z,42.22
2022-10-05T06:35:29.286Z,41.70
2022-10-05T06:38:17.377Z,40.05
2022-10-05T06:41:15.929Z,38.88
2022-10-05T06:44:01.036Z,39.22
2022-10-05T06:47:38.189Z,39.25
2022-10-05T06:50:52.473Z,37.05
2022-10-05T06:54:14.490Z,37.07
2022-10-05T06:57:09.148Z,31.88
2022-10-05T07:00:05.405Z,32.88
2022-10-05T07:02:49.402Z,34.50
2022-10-05T07:05:47.658Z,33.03
2022-10-05T07:08:57.301Z,33.17
2022-10-05T07:12:05.462Z,31.20
2022-10-05T07:15:04.344Z,30.73
2022-10-05T07:18:27.657Z,30.33
2022-10-05T07:21:26.542Z,30.38
2022-10-05T07:24:23.169Z,30.63
2022-10-05T07:27:05.501Z,27.85
2022-10-05T07:29:48.156Z,25.75
2022-10-05T07:33:13.664Z,26.38
2022-10-05T07:36:36.374Z,25.83
2022-10-05T07:39:55.368Z,25.77
2022-10-05T07:43:07.484Z,24.58
2022-10-05T07:46:09.955Z,25.08
2022-10-05T07:49:03.308Z,24.50
2022-10-05T07:51:40.955Z,25.02
2022-10-05T07:55:02.899Z,23.23
2022-10-05T07:58:06.305Z,22.00
2022-10-05T08:01:03.213Z,22.88
2022-10-05T08:04:19.707Z,22.65
2022-10-05T08:07:01.970Z,22.88
2022-10-05T08:09:50.714Z,22.10
2022-10-05T08:12:37.318Z,22.77
2022-10-05T08:15:25.922Z,22.73
2022-10-05T08:18:12.119Z,22.08
2022-10-05T08:20:52.797Z,22.55
2022-10-05T08:23:39.264Z,23.95
2022-10-05T08:26:35.778Z,22.83
2022-10-05T08:29:35.292Z,23.88
2022-10-05T08:32:25.820Z,20.98
2022-10-05T08:35:24.123Z,21.58
2022-10-05T08:37:52.473Z,21.02
2022-10-05T08:40:22.140Z,20.25
2022-10-05T08:43:35.772Z,19.88
2022-10-05T08:46:26.617Z,20.75
2022-10-05T08:49:52.844Z,19.63
2022-10-05T08:52:37.715Z,21.50
2022-10-05T08:55:10.713Z,19.17
2022-10-05T08:58:20.896Z,20.17
2022-10-05T09:01:50.365Z,20.20
2022-10-05T09:04:30.075Z,19.90
2022-10-05T09:07:07.902Z,20.48
2022-10-05T09:10:37.741Z,19.98
2022-10-05T09:13:32.289Z,20.17
2022-10-05T09:16:16.764Z,19.33
2022-10-05T09:19:24.337Z,17.55
2022-10-05T09:22:11.377Z,19.42
2022-10-05T09:25:08.561Z,19.90
2022-10-05T09:27:48.407Z,16.80
2022-10-05T09:30:56.881Z,18.27
2022-10-05T09:34:02.577Z,19.40
2022-10-05T09:36:48.043Z,16.90
2022-10-05T09:39:43.311Z,15.52
2022-10-05T09:42:35.005Z,16.08
2022-10-05T09:45:48.805Z,16.45
2022-10-05T09:48:54.843Z,17.30
2022-10-05T09:51:47.206Z,15.35
2022-10-05T09:55:01.256Z,16.23
2022-10-05T09:58:05.534Z,16.38
2022-10-05T10:01:08.909Z,15.82
2022-10-05T10:04:10.827Z,15.73
2022-10-05T10:07:21.072Z,16.25
2022-10-05T10:10:31.489Z,15.55
2022-10-05T10:13:29.916Z,15.48
2022-10-05T10:16:27.201Z,15.88
2022-10-05T10:19:57.796Z,17.67
2022-10-05T10:23:12.412Z,15.98
2022-10-05T10:26:12.417Z,15.02
2022-10-05T10:29:42.858Z,15.25
2022-10-05T10:32:53.540Z,15.70
2022-10-05T10:35:54.343Z,16.00
2022-10-05T10:38:30.923Z,16.60
2022-10-05T10:41:40.545Z,16.17
2022-10-05T10:44:58.804Z,15.60
2022-10-05T10:47:38.908Z,15.98
2022-10-05T10:50:29.147Z,16.55
2022-10-05T10:53:11.301Z,16.70
2022-10-05T10:56:21.657Z,16.75
2022-10-05T10:59:56.906Z,17.30
2022-10-05T11:03:29.614Z,17.10
2022-10-05T11:06:13.403Z,16.15
2022-10-05T11:09:19.581Z,17.40
2022-10-05T11:12:20.507Z,17.60
2022-10-05T11:15:23.805Z,17.85
2022-10-05T11:18:09.409Z,17.15
2022-10-05T11:21:30.248Z,18.05
2022-10-05T11:24:54.582Z,18.50
2022-10-05T11:28:04.032Z,19.17
2022-10-05T11:31:25.556Z,20.38
2022-10-05T11:34:19.953Z,20.88
2022-10-05T11:37:29.132Z,21.98
2022-10-05T11:41:05.459Z,24.30
2022-10-05T11:44:12.743Z,22.85
2022-10-05T11:47:12.050Z,20.83
2022-10-05T11:49:52.052Z,23.13
2022-10-05T11:52:47.219Z,24.80
2022-10-05T11:55:57.701Z,25.33
2022-10-05T11:58:45.703Z,26.13
2022-10-05T12:01:20.835Z,27.20
2022-10-05T12:04:18.494Z,28.70
2022-10-05T12:07:08.018Z,30.75
2022-10-05T12:10:29.010Z,30.42
2022-10-05T12:13:19.230Z,30.88
2022-10-05T12:16:22.595Z,30.75
2022-10-05T12:18:59.906Z,28.55
2022-10-05T12:22:03.751Z,29.98
2022-10-05T12:24:36.821Z,27.73
2022-10-05T12:27:25.154Z,25.02
2022-10-05T12:30:49.493Z,22.58
2022-10-05T12:33:27.757Z,24.90
2022-10-05T12:36:15.433Z,25.08
2022-10-05T12:39:10.788Z,24.42
2022-10-05T12:42:26.010Z,25.87
2022-10-05T12:45:35.512Z,27.02
2022-10-05T12:48:19.868Z,23.90
2022-10-05T12:51:01.320Z,24.85
2022-10-05T12:54:22.237Z,25.23
2022-10-05T12:57:15.098Z,25.60
2022-10-05T13:00:13.054Z,24.23
2022-10-05T13:03:00.354Z,25.13
2022-10-05T13:05:50.814Z,26.08
2022-10-05T13:09:38.139Z,25.23
2022-10-05T13:12:35.954Z,23.88
2022-10-05T13:15:50.063Z,22.45
2022-10-05T13:19:03.298Z,24.10
2022-10-05T13:22:03.491Z,19.85
2022-10-05T13:25:02.804Z,19.98
2022-10-05T13:27:42.207Z,22.13
2022-10-05T13:30:20.034Z,23.40
2022-10-05T13:33:18.158Z,23.70
2022-10-05T13:36:07.373Z,25.23
2022-10-05T13:39:06.654Z,25.27
2022-10-05T13:42:07.675Z,25.35
2022-10-05T13:45:00.399Z,24.45
2022-10-05T13:48:11.889Z,23.92
2022-10-05T13:50:59.037Z,24.42
2022-10-05T13:53:49.028Z,22.33
2022-10-05T13:56:36.536Z,20.73
2022-10-05T13:59:33.348Z,21.10
2022-10-05T14:02:17.865Z,21.17
2022-10-05T14:05:15.525Z,20.88
2022-10-05T14:07:56.628Z,22.52
2022-10-05T14:10:44.470Z,21.25
2022-10-05T14:13:20.292Z,20.88
2022-10-05T14:16:26.126Z,21.60
2022-10-05T14:19:08.429Z,22.17
2022-10-05T14:22:01.873Z,23.42
2022-10-05T14:24:46.279Z,23.35
2022-10-05T14:27:49.205Z,23.67
2022-10-05T14:30:20.281Z,20.80
2022-10-05T14:33:05.337Z,19.40
2022-10-05T14:35:57.564Z,19.23
2022-10-05T14:39:03.506Z,18.63
2022-10-05T14:41:37.499Z,18.30
2022-10-05T14:44:09.525Z,19.33
2022-10-05T14:46:39.389Z,20.70
2022-10-05T14:49:27.894Z,20.52
2022-10-05T14:51:56.621Z,20.00
2022-10-05T14:54:43.780Z,19.70
2022-10-05T14:57:48.074Z,21.13
2022-10-05T15:00:18.631Z,19.77
2022-10-05T15:03:16.122Z,20.52
2022-10-05T15:05:53.907Z,19.15
2022-10-05T15:09:17.752Z,18.27
2022-10-05T15:11:58.640Z,20.23
2022-10-05T15:14:44.796Z,19.58
2022-10-05T15:17:23.614Z,22.35
2022-10-05T15:19:55.834Z,20.85
2022-10-05T15:23:33.430Z,22.13
2022-10-05T15:26:43.386Z,20.90
2022-10-05T15:29:52.052Z,19.17
2022-10-05T15:32:42.010Z,20.58
2022-10-05T15:35:48.898Z,20.15
2022-10-05T15:38:30.978Z,18.52
2022-10-05T15:41:20.489Z,20.33
2022-10-05T15:44:27.768Z,20.02
2022-10-05T15:47:18.917Z,22.23
2022-10-05T15:49:58.353Z,21.35
2022-10-05T15:53:20.681Z,20.30
2022-10-05T15:56:20.656Z,19.63
2022-10-05T15:59:07.033Z,21.15
2022-10-05T16:01:34.062Z,19.15
2022-10-05T16:04:30.177Z,20.77
2022-10-05T16:07:23.616Z,18.55
2022-10-05T16:10:08.928Z,18.27
2022-10-05T16:13:23.888Z,18.50
2022-10-05T16:16:30.613Z,19.52
2022-10-05T16:19:36.938Z,18.95
2022-10-05T16:22:39.988Z,18.23
2022-10-05T16:26:32.575Z,16.52
2022-10-05T16:29:14.322Z,17.20
2022-10-05T16:32:07.193Z,18.20
2022-10-05T16:35:33.325Z,17.88
2022-10-05T16:38:47.548Z,18.98
2022-10-05T16:41:35.249Z,18.92
2022-10-05T16:44:30.518Z,19.98
2022-10-05T16:47:39.304Z,21.35
2022-10-05T16:50:42.978Z,21.15
2022-10-05T16:53:37.285Z,22.42
2022-10-05T16:56:18.790Z,22.55
2022-10-05T16:59:36.608Z,23.55
2022-10-05T17:02:46.442Z,26.80
2022-10-05T17:05:57.110Z,24.38
2022-10-05T17:09:11.212Z,27.90
2022-10-05T17:11:58.254Z,26.38
2022-10-05T17:15:13.796Z,28.38
2022-10-05T17:18:05.047Z,29.58
2022-10-05T17:20:51.540Z,27.77
2022-10-05T17:23:50.838Z,27.65
2022-10-05T17:26:45.932Z,27.77
2022-10-05T17:29:32.004Z,29.27
2022-10-05T17:32:33.964Z,29.80
2022-10-05T17:35:01.044Z,29.35
2022-10-05T17:37:28.128Z,29.10
2022-10-05T17:39:57.883Z,31.00
2022-10-05T17:42:40.036Z,29.60
2022-10-05T17:45:11.939Z,30.10
2022-10-05T17:48:03.714Z,30.63
2022-10-05T17:51:01.500Z,35.95
2022-10-05T17:54:06.704Z,32.35
2022-10-05T17:56:56.900Z,32.95
2022-10-05T17:59:44.501Z,32.97
2022-10-05T18:02:28.905Z,34.13
2022-10-05T18:05:12.540Z,34.95
2022-10-05T18:07:49.581Z,34.47
2022-10-05T18:10:29.048Z,32.67
2022-10-05T18:12:59.293Z,33.45
2022-10-05T18:15:26.381Z,32.25
2022-10-05T18:18:20.190Z,32.70
2022-10-05T18:21:20.363Z,30.50
2022-10-05T18:23:59.770Z,31.10
2022-10-05T18:26:57.214Z,30.10
2022-10-05T18:30:05.079Z,30.20
2022-10-05T18:33:23.998Z,29.55
2022-10-05T18:36:38.087Z,30.02
2022-10-05T18:39:39.274Z,30.67
2022-10-05T18:42:49.703Z,31.15
2022-10-05T18:46:11.089Z,31.23
2022-10-05T18:49:18.749Z,31.95
2022-10-05T18:52:06.414Z,30.33
2022-10-05T18:55:32.598Z,31.63
2022-10-05T18:59:06.702Z,31.55
2022-10-05T19:02:59.226Z,31.17
2022-10-05T19:06:08.297Z,31.63
2022-10-05T19:13:31.483Z,32.00
2022-10-05T19:17:06.625Z,35.05
2022-10-05T19:20:43.414Z,33.53
2022-10-05T19:24:03.191Z,35.38
2022-10-05T19:28:11.967Z,35.10
2022-10-05T19:31:51.028Z,36.70
2022-10-05T19:36:03.426Z,37.33
2022-10-05T19:39:01.616Z,37.42
2022-10-05T19:42:46.628Z,38.47
2022-10-05T19:46:23.828Z,38.33
2022-10-05T19:49:40.486Z,40.40
2022-10-05T19:52:50.898Z,42.00
2022-10-05T19:58:52.398Z,42.55
2022-10-05T20:01:49.718Z,44.30
2022-10-05T20:05:17.190Z,44.33
2022-10-05T20:08:01.912Z,44.03
2022-10-05T20:11:39.903Z,44.45
2022-10-05T20:14:32.918Z,45.92
2022-10-05T20:19:17.415Z,45.30
2022-10-05T20:22:59.260Z,45.85
2022-10-05T20:26:34.671Z,47.05
2022-10-05T20:29:13.234Z,46.75
2022-10-05T20:35:00.106Z,74.13
2022-10-05T20:37:49.034Z,71.97
2022-10-05T20:40:40.141Z,69.47
2022-10-05T20:43:34.586Z,68.13
2022-10-05T20:46:11.545Z,69.18
2022-10-05T20:48:44.333Z,65.90
2022-10-05T20:51:33.860Z,61.72
2022-10-05T20:54:13.421Z,62.38
2022-10-05T20:56:43.306Z,64.45
2022-10-05T20:59:10.994Z,60.45
2022-10-05T21:01:39.729Z,58.53
2022-10-05T21:04:07.882Z,58.60
2022-10-05T21:06:35.229Z,57.60
2022-10-05T21:09:02.419Z,57.03
2022-10-05T21:11:29.693Z,55.80
2022-10-05T21:13:57.038Z,58.20
2022-10-05T21:16:24.899Z,55.13
2022-10-05T21:18:53.573Z,54.08
2022-10-05T21:21:21.830Z,54.53
2022-10-05T21:23:49.045Z,50.10
2022-10-05T21:26:16.596Z,50.47
2022-10-05T21:28:43.909Z,53.83
2022-10-05T21:31:11.203Z,53.55
2022-10-05T21:33:38.394Z,49.80
2022-10-05T21:36:05.798Z,48.47
2022-10-05T21:38:32.944Z,49.30
2022-10-05T21:41:00.306Z,51.10
2022-10-05T21:43:28.030Z,50.25
2022-10-05T21:45:56.212Z,50.92
2022-10-05T21:48:25.792Z,52.38
2022-10-05T21:50:54.251Z,51.35
2022-10-05T21:53:29.953Z,54.42
2022-10-05T21:56:02.696Z,54.75
2022-10-05T21:58:31.238Z,57.03
2022-10-05T22:00:58.619Z,59.38
2022-10-05T22:03:26.268Z,59.42
2022-10-05T22:05:53.424Z,57.72
2022-10-05T22:08:39.777Z,57.47
2022-10-05T22:11:17.719Z,54.10
2022-10-05T22:13:53.708Z,53.72
2022-10-05T22:16:23.670Z,53.63
2022-10-05T22:18:51.676Z,53.33
2022-10-05T22:21:21.015Z,56.20
2022-10-05T22:23:48.891Z,59.17
2022-10-05T22:26:20.885Z,56.20
2022-10-05T22:28:49.641Z,59.58
2022-10-05T22:31:18.750Z,55.55
2022-10-05T22:33:46.009Z,56.47
2022-10-05T22:36:13.260Z,54.30
2022-10-05T22:38:40.526Z,55.47
2022-10-05T22:41:12.168Z,55.85
2022-10-05T22:43:39.573Z,56.30
2022-10-05T22:46:14.322Z,55.28
2022-10-05T22:48:41.544Z,55.25
2022-10-05T22:51:09.215Z,55.08
2022-10-05T22:53:36.436Z,52.63
2022-10-05T22:56:13.406Z,55.22
2022-10-05T22:58:42.962Z,51.15
2022-10-05T23:01:15.968Z,50.28
2022-10-05T23:03:44.377Z,52.00
2022-10-05T23:06:17.705Z,52.17
2022-10-05T23:08:45.934Z,52.17
2022-10-05T23:11:25.715Z,50.65
2022-10-05T23:13:58.600Z,52.05
2022-10-05T23:16:28.523Z,52.58
2022-10-05T23:18:56.301Z,49.35
2022-10-05T23:21:28.460Z,52.65
2022-10-05T23:23:55.744Z,51.08
2022-10-05T23:26:25.525Z,54.25
2022-10-05T23:28:52.817Z,51.28
2022-10-05T23:31:30.077Z,52.22
2022-10-05T23:33:57.437Z,52.50
2022-10-05T23:36:32.131Z,54.60
2022-10-05T23:39:00.366Z,53.57
2022-10-05T23:41:27.709Z,54.38
2022-10-05T23:43:55.403Z,54.03
2022-10-05T23:46:23.216Z,54.03
2022-10-05T23:48:53.068Z,55.78
2022-10-05T23:51:20.362Z,55.20
2022-10-05T23:53:47.612Z,52.95
2022-10-05T23:56:14.908Z,51.67
2022-10-05T23:58:42.174Z,50.53
